Zoar, Ohio
Current Conditions -  °F | °C
As of 4:53 PM on Tuesday 25 Nov 2014 (Local Time) from KPHD Reporting Station
Overcast Overcast  
Wind Chill: 34°   Ceiling: 3700
Heat Index: 39°   Visibility: 10mi
Dew Point: 26°   Wind: 7mph
Humidity: 60%   Direction: 280°W
Pressure: 30.12"   Gusts: NA
Location:  40.61°N, 81.42°W
Report Text: KPHD 252153Z AUTO 28006KT 10SM OVC037 04/M03 A3012 RMK AO2 SLP207 T00391033
Loading
Personal Weather Stations






























Interactive Weather Map New forecast layout! Learn more

10-Day Weather Forecast

Advertisements
Track Severe Weather on mobile